createdAt,value
2023-01-12T00:01:15.677Z,83.38
2023-01-12T00:04:21.243Z,83.27
2023-01-12T00:07:23.884Z,82.99
2023-01-12T00:10:26.517Z,82.79
2023-01-12T00:13:29.974Z,82.92
2023-01-12T00:16:35.806Z,82.84
2023-01-12T00:19:39.376Z,82.97
2023-01-12T00:22:42.021Z,82.81
2023-01-12T00:25:50.791Z,82.86
2023-01-12T00:28:54.157Z,82.56
2023-01-12T00:31:58.499Z,82.34
2023-01-12T00:35:01.180Z,82.36
2023-01-12T00:38:06.355Z,82.16
2023-01-12T00:41:11.517Z,82.27
2023-01-12T00:44:32.435Z,82.05
2023-01-12T00:47:35.402Z,81.88
2023-01-12T00:50:37.837Z,81.80
2023-01-12T00:53:40.604Z,81.81
2023-01-12T00:56:43.091Z,81.92
2023-01-12T00:59:46.526Z,82.03
2023-01-12T01:02:49.208Z,81.83
2023-01-12T01:05:51.925Z,81.83
2023-01-12T01:08:54.301Z,81.65
2023-01-12T01:11:58.314Z,81.46
2023-01-12T01:15:00.699Z,81.46
2023-01-12T01:18:03.424Z,81.29
2023-01-12T01:21:06.113Z,81.20
2023-01-12T01:24:14.281Z,81.04
2023-01-12T01:27:16.871Z,80.92
2023-01-12T01:30:19.534Z,81.35
2023-01-12T01:33:21.844Z,82.01
2023-01-12T01:36:24.572Z,82.64
2023-01-12T01:39:26.947Z,82.94
2023-01-12T01:42:29.662Z,83.25
2023-01-12T01:45:32.475Z,83.75
2023-01-12T01:48:39.209Z,83.37
2023-01-12T01:51:42.332Z,84.26
2023-01-12T01:54:56.115Z,84.71
2023-01-12T01:58:02.865Z,85.23
2023-01-12T02:01:06.439Z,85.38
2023-01-12T02:04:09.503Z,85.53
2023-01-12T02:07:12.566Z,85.72
2023-01-12T02:10:15.361Z,86.48
2023-01-12T02:13:37.351Z,86.55
2023-01-12T02:17:01.268Z,86.32
2023-01-12T02:20:12.706Z,86.25
2023-01-12T02:23:32.019Z,86.02
2023-01-12T02:26:55.049Z,85.33
2023-01-12T02:30:30.699Z,84.81
2023-01-12T02:33:48.352Z,85.45
2023-01-12T02:37:21.636Z,85.29
2023-01-12T02:40:53.166Z,85.41
2023-01-12T02:43:55.868Z,85.61
2023-01-12T02:47:05.274Z,85.41
2023-01-12T02:50:12.797Z,85.94
2023-01-12T02:53:27.967Z,86.22
2023-01-12T02:56:34.784Z,85.73
2023-01-12T02:59:41.972Z,85.47
2023-01-12T03:02:44.432Z,84.96
2023-01-12T03:05:47.612Z,85.17
2023-01-12T03:08:52.570Z,85.33
2023-01-12T03:12:03.844Z,85.50
2023-01-12T03:15:08.830Z,84.92
2023-01-12T03:18:35.229Z,84.28
2023-01-12T03:21:42.580Z,85.20
2023-01-12T03:24:56.698Z,85.04
2023-01-12T03:28:01.046Z,85.23
2023-01-12T03:31:09.460Z,85.53
2023-01-12T03:34:12.002Z,85.72
2023-01-12T03:37:25.020Z,86.31
2023-01-12T03:40:35.420Z,86.52
2023-01-12T03:44:00.248Z,86.77
2023-01-12T03:47:09.932Z,86.13
2023-01-12T03:50:35.177Z,86.16
2023-01-12T03:53:40.054Z,85.88
2023-01-12T03:56:45.482Z,85.79
2023-01-12T03:59:49.072Z,85.72
2023-01-12T04:03:09.261Z,85.45
2023-01-12T04:06:11.921Z,85.23
2023-01-12T04:09:14.251Z,85.10
2023-01-12T04:12:16.854Z,85.07
2023-01-12T04:15:19.338Z,85.11
2023-01-12T04:18:22.034Z,85.50
2023-01-12T04:21:43.458Z,84.98
2023-01-12T04:24:46.740Z,85.47
2023-01-12T04:27:56.875Z,84.47
2023-01-12T04:30:59.491Z,83.44
2023-01-12T04:34:02.130Z,83.91
2023-01-12T04:37:05.162Z,83.46
2023-01-12T04:40:08.969Z,83.84
2023-01-12T04:43:12.079Z,83.76
2023-01-12T04:46:14.489Z,83.40
2023-01-12T04:49:18.101Z,83.99
2023-01-12T04:52:20.454Z,83.35
2023-01-12T04:55:23.231Z,83.54
2023-01-12T04:58:25.630Z,84.14
2023-01-12T05:01:29.952Z,83.68
2023-01-12T05:04:32.544Z,84.32
2023-01-12T05:07:36.689Z,86.06
2023-01-12T05:10:39.459Z,86.20
2023-01-12T05:13:42.517Z,86.13
2023-01-12T05:16:45.037Z,86.51
2023-01-12T05:19:49.651Z,87.01
2023-01-12T05:22:52.760Z,86.90
2023-01-12T05:25:59.306Z,87.67
2023-01-12T05:29:01.751Z,87.78
2023-01-12T05:32:04.618Z,87.45
2023-01-12T05:35:08.836Z,87.90
2023-01-12T05:38:11.918Z,88.07
2023-01-12T05:41:14.870Z,87.75
2023-01-12T05:44:17.625Z,87.15
2023-01-12T05:47:20.085Z,87.05
2023-01-12T05:50:22.759Z,86.84
2023-01-12T05:53:26.822Z,86.50
2023-01-12T05:56:30.509Z,87.55
2023-01-12T05:59:33.041Z,87.83
2023-01-12T06:02:35.710Z,88.02
2023-01-12T06:05:38.463Z,86.85
2023-01-12T06:08:40.801Z,86.36
2023-01-12T06:12:02.059Z,86.21
2023-01-12T06:15:04.757Z,86.85
2023-01-12T06:18:07.371Z,87.15
2023-01-12T06:21:10.330Z,86.28
2023-01-12T06:24:12.936Z,86.28
2023-01-12T06:27:16.621Z,86.53
2023-01-12T06:30:19.304Z,86.99
2023-01-12T06:33:21.651Z,87.28
2023-01-12T06:36:24.467Z,86.96
2023-01-12T06:39:28.991Z,87.23
2023-01-12T06:42:31.942Z,87.10
2023-01-12T06:45:34.252Z,86.92
2023-01-12T06:48:39.184Z,86.90
2023-01-12T06:51:42.235Z,86.90
2023-01-12T06:54:44.909Z,86.76
2023-01-12T06:57:47.279Z,86.82
2023-01-12T07:00:50.534Z,86.79
2023-01-12T07:03:53.657Z,86.71
2023-01-12T07:06:56.391Z,86.72
2023-01-12T07:09:58.676Z,86.33
2023-01-12T07:13:01.295Z,86.34
2023-01-12T07:16:04.049Z,86.73
2023-01-12T07:19:06.689Z,87.11
2023-01-12T07:22:09.304Z,86.81
2023-01-12T07:25:11.936Z,86.75
2023-01-12T07:28:14.642Z,86.93
2023-01-12T07:31:19.440Z,86.36
2023-01-12T07:34:21.996Z,86.08
2023-01-12T07:37:24.700Z,85.25
2023-01-12T07:40:27.160Z,86.23
2023-01-12T07:43:30.583Z,86.48
2023-01-12T07:46:33.064Z,85.42
2023-01-12T07:49:35.789Z,85.14
2023-01-12T07:52:38.358Z,84.74
2023-01-12T07:55:43.718Z,84.86
2023-01-12T07:58:49.678Z,84.86
2023-01-12T08:01:53.885Z,84.95
2023-01-12T08:04:57.073Z,85.49
2023-01-12T08:08:00.007Z,85.20
2023-01-12T08:11:05.044Z,84.66
2023-01-12T08:14:07.388Z,84.72
2023-01-12T08:17:21.784Z,84.52
2023-01-12T08:20:30.534Z,84.14
2023-01-12T08:23:41.668Z,84.23
2023-01-12T08:26:48.211Z,84.08
2023-01-12T08:29:54.553Z,83.80
2023-01-12T08:33:00.778Z,83.58
2023-01-12T08:36:10.408Z,83.90
2023-01-12T08:39:12.906Z,83.52
2023-01-12T08:42:15.639Z,83.48
2023-01-12T08:45:18.157Z,83.54
2023-01-12T08:48:20.953Z,83.66
2023-01-12T08:51:23.358Z,83.67
2023-01-12T08:54:26.167Z,83.59
2023-01-12T08:57:28.766Z,83.52
2023-01-12T09:00:31.672Z,83.52
2023-01-12T09:03:34.810Z,83.51
2023-01-12T09:06:40.635Z,83.60
2023-01-12T09:09:43.016Z,83.43
2023-01-12T09:12:45.683Z,83.59
2023-01-12T09:16:10.886Z,83.99
2023-01-12T09:19:11.062Z,83.97
2023-01-12T09:22:13.378Z,83.67
2023-01-12T09:25:16.274Z,83.66
2023-01-12T09:28:18.646Z,83.69
2023-01-12T09:31:23.558Z,84.01
2023-01-12T09:34:28.525Z,83.90
2023-01-12T09:37:31.508Z,84.02
2023-01-12T09:40:35.627Z,83.88
2023-01-12T09:43:59.365Z,83.17
2023-01-12T09:47:05.405Z,83.27
2023-01-12T09:50:28.272Z,83.17
2023-01-12T09:53:34.334Z,82.56
2023-01-12T09:57:01.857Z,82.42
2023-01-12T10:00:13.839Z,82.09
2023-01-12T10:03:41.663Z,82.05
2023-01-12T10:06:44.310Z,81.46
2023-01-12T10:09:47.057Z,81.62
2023-01-12T10:12:59.971Z,81.85
2023-01-12T10:16:14.567Z,81.98
2023-01-12T10:19:31.152Z,82.09
2023-01-12T10:23:09.003Z,81.89
2023-01-12T10:26:18.592Z,81.70
2023-01-12T10:29:21.254Z,81.78
2023-01-12T10:32:31.384Z,81.86
2023-01-12T10:35:59.526Z,81.95
2023-01-12T10:39:04.885Z,81.41
2023-01-12T10:42:35.880Z,81.69
2023-01-12T10:45:38.384Z,81.68
2023-01-12T10:48:45.057Z,81.52
2023-01-12T10:52:02.157Z,81.67
2023-01-12T10:55:05.388Z,80.98
2023-01-12T10:58:30.336Z,80.82
2023-01-12T11:02:11.856Z,80.92
2023-01-12T11:05:30.768Z,80.84
2023-01-12T11:08:33.410Z,80.28
2023-01-12T11:11:35.845Z,80.31
2023-01-12T11:14:38.507Z,80.28
2023-01-12T11:18:08.877Z,80.35
2023-01-12T11:21:14.967Z,80.55
2023-01-12T11:24:23.236Z,80.58
2023-01-12T11:27:31.308Z,80.27
2023-01-12T11:30:46.851Z,80.08
2023-01-12T11:34:00.362Z,79.87
2023-01-12T11:37:10.820Z,79.74
2023-01-12T11:40:25.756Z,79.30
2023-01-12T11:43:46.450Z,79.09
2023-01-12T11:46:56.174Z,79.04
2023-01-12T11:50:05.920Z,79.59
2023-01-12T11:53:19.146Z,79.19
2023-01-12T11:56:30.320Z,78.69
2023-01-12T11:59:45.070Z,79.04
2023-01-12T12:02:50.351Z,78.73
2023-01-12T12:06:22.708Z,77.81
2023-01-12T12:09:39.566Z,77.79
2023-01-12T12:12:49.898Z,77.39
2023-01-12T12:16:16.842Z,77.66
2023-01-12T12:19:27.537Z,76.99
2023-01-12T12:22:53.089Z,77.15
2023-01-12T12:26:21.833Z,77.32
2023-01-12T12:29:59.047Z,77.47
2023-01-12T12:33:20.796Z,77.55
2023-01-12T12:37:02.591Z,77.69
2023-01-12T12:40:56.381Z,77.71
2023-01-12T12:44:52.593Z,77.51
2023-01-12T12:48:01.685Z,77.28
2023-01-12T12:51:08.602Z,77.46
2023-01-12T12:54:17.217Z,77.64
2023-01-12T12:57:19.531Z,77.73
2023-01-12T13:00:46.776Z,77.02
2023-01-12T13:03:51.938Z,77.15
2023-01-12T13:06:54.598Z,76.95
2023-01-12T13:10:15.429Z,76.81
2023-01-12T13:13:33.546Z,76.75
2023-01-12T13:16:35.873Z,76.66
2023-01-12T13:19:40.053Z,77.08
2023-01-12T13:22:42.380Z,77.22
2023-01-12T13:25:51.155Z,77.36
2023-01-12T13:29:24.900Z,77.66
2023-01-12T13:32:42.897Z,77.89
2023-01-12T13:35:46.254Z,77.62
2023-01-12T13:38:59.401Z,77.79
2023-01-12T13:42:20.670Z,77.69
2023-01-12T13:45:24.003Z,77.63
2023-01-12T13:48:28.388Z,77.68
2023-01-12T13:51:50.597Z,77.87
2023-01-12T13:54:53.014Z,78.25
2023-01-12T13:57:58.187Z,78.42
2023-01-12T14:01:01.506Z,78.14
2023-01-12T14:04:19.849Z,77.89
2023-01-12T14:07:37.781Z,77.63
2023-01-12T14:10:54.065Z,77.68
2023-01-12T14:14:44.585Z,77.98
2023-01-12T14:17:52.701Z,78.04
2023-01-12T14:20:59.636Z,78.21
2023-01-12T14:24:16.446Z,78.50
2023-01-12T14:27:23.434Z,78.49
2023-01-12T14:30:28.543Z,78.78
2023-01-12T14:33:35.735Z,77.88
2023-01-12T14:36:44.202Z,78.12
2023-01-12T14:39:46.875Z,78.73
2023-01-12T14:43:08.486Z,79.09
2023-01-12T14:46:27.363Z,79.23
2023-01-12T14:49:35.670Z,79.43
2023-01-12T14:52:38.882Z,79.12
2023-01-12T14:55:41.774Z,79.10
2023-01-12T14:58:46.602Z,80.00
2023-01-12T15:01:50.425Z,80.24
2023-01-12T15:05:03.182Z,80.12
2023-01-12T15:08:08.888Z,79.70
2023-01-12T15:11:11.207Z,78.56
2023-01-12T15:14:22.312Z,78.77
2023-01-12T15:17:43.345Z,78.99
2023-01-12T15:21:04.886Z,79.04
2023-01-12T15:24:49.027Z,79.01
2023-01-12T15:27:51.677Z,77.98
2023-01-12T15:30:55.769Z,78.37
2023-01-12T15:33:58.757Z,78.65
2023-01-12T15:37:01.140Z,79.08
2023-01-12T15:40:05.553Z,79.55
2023-01-12T15:43:17.068Z,79.51
2023-01-12T15:46:22.241Z,78.71
2023-01-12T15:49:24.684Z,78.73
2023-01-12T15:52:27.327Z,78.89
2023-01-12T15:55:36.049Z,79.08
2023-01-12T15:58:38.911Z,79.28
2023-01-12T16:01:47.086Z,79.04
2023-01-12T16:04:49.933Z,78.80
2023-01-12T16:07:53.093Z,79.24
2023-01-12T16:11:13.443Z,79.63
2023-01-12T16:14:16.035Z,79.36
2023-01-12T16:17:19.013Z,79.23
2023-01-12T16:20:21.495Z,79.36
2023-01-12T16:23:24.420Z,79.88
2023-01-12T16:26:28.530Z,79.92
2023-01-12T16:29:31.417Z,79.62
2023-01-12T16:32:33.837Z,79.67
2023-01-12T16:35:36.688Z,79.87
2023-01-12T16:38:39.139Z,80.30
2023-01-12T16:41:42.083Z,80.38
2023-01-12T16:44:44.608Z,80.43
2023-01-12T16:47:47.198Z,80.51
2023-01-12T16:50:49.561Z,80.50
2023-01-12T16:53:55.148Z,80.56
2023-01-12T16:56:58.930Z,80.30
2023-01-12T17:00:01.893Z,80.28
2023-01-12T17:03:04.941Z,80.05
2023-01-12T17:06:14.892Z,80.22
2023-01-12T17:09:17.958Z,80.53
2023-01-12T17:12:20.788Z,80.79
2023-01-12T17:15:23.351Z,80.86
2023-01-12T17:18:27.266Z,81.11
2023-01-12T17:21:29.773Z,81.05
2023-01-12T17:24:34.104Z,81.11
2023-01-12T17:27:36.723Z,80.80
2023-01-12T17:30:39.585Z,80.67
2023-01-12T17:33:42.235Z,80.96
2023-01-12T17:36:45.235Z,80.99
2023-01-12T17:39:47.689Z,81.17
2023-01-12T17:43:02.786Z,81.31
2023-01-12T17:46:08.588Z,81.53
2023-01-12T17:49:12.217Z,81.59
2023-01-12T17:52:14.845Z,81.63
2023-01-12T17:55:17.554Z,82.02
2023-01-12T17:58:19.953Z,81.93
2023-01-12T18:01:24.485Z,82.08
2023-01-12T18:04:27.308Z,82.30
2023-01-12T18:07:32.004Z,82.27
2023-01-12T18:10:34.705Z,82.30
2023-01-12T18:13:38.002Z,82.36
2023-01-12T18:16:42.230Z,82.50
2023-01-12T18:19:44.641Z,82.96
2023-01-12T18:22:47.341Z,82.96
2023-01-12T18:25:49.690Z,83.04
2023-01-12T18:28:53.946Z,82.96
2023-01-12T18:31:56.285Z,83.08
2023-01-12T18:34:58.970Z,83.83
2023-01-12T18:38:01.359Z,84.32
2023-01-12T18:41:22.744Z,83.77
2023-01-12T18:44:25.442Z,84.12
2023-01-12T18:47:46.789Z,83.71
2023-01-12T18:51:11.773Z,84.08
2023-01-12T18:54:14.407Z,84.11
2023-01-12T18:57:18.744Z,83.96
2023-01-12T19:00:23.774Z,84.20
2023-01-12T19:03:26.123Z,84.26
2023-01-12T19:06:42.369Z,84.38
2023-01-12T19:09:44.749Z,84.52
2023-01-12T19:12:49.227Z,84.64
2023-01-12T19:16:10.516Z,84.76
2023-01-12T19:19:13.303Z,84.80
2023-01-12T19:22:34.320Z,84.86
2023-01-12T19:25:55.600Z,84.66
2023-01-12T19:28:57.988Z,84.89
2023-01-12T19:32:00.657Z,85.06
2023-01-12T19:35:10.907Z,85.00
2023-01-12T19:38:14.905Z,85.10
2023-01-12T19:41:35.870Z,85.64
2023-01-12T19:44:38.578Z,85.69
2023-01-12T19:47:41.112Z,85.75
2023-01-12T19:50:44.999Z,85.96
2023-01-12T19:53:47.376Z,86.42
2023-01-12T19:56:50.108Z,86.52
2023-01-12T19:59:52.445Z,86.65
2023-01-12T20:02:55.277Z,86.76
2023-01-12T20:05:58.355Z,86.09
2023-01-12T20:09:00.752Z,86.00
2023-01-12T20:12:05.276Z,86.29
2023-01-12T20:15:08.354Z,86.43
2023-01-12T20:18:11.149Z,85.72
2023-01-12T20:21:13.736Z,85.73
2023-01-12T20:24:16.465Z,86.12
2023-01-12T20:27:18.940Z,85.86
2023-01-12T20:30:37.023Z,86.13
2023-01-12T20:33:39.834Z,86.09
2023-01-12T20:36:46.000Z,86.10
2023-01-12T20:39:53.157Z,86.37
2023-01-12T20:42:55.805Z,86.34
2023-01-12T20:45:58.146Z,86.47
2023-01-12T20:49:02.509Z,86.50
2023-01-12T20:52:04.854Z,86.58
2023-01-12T20:55:08.322Z,86.43
2023-01-12T20:58:11.233Z,86.38
2023-01-12T21:01:15.485Z,86.43
2023-01-12T21:04:19.479Z,86.55
2023-01-12T21:07:22.231Z,86.55
2023-01-12T21:10:24.650Z,87.00
2023-01-12T21:13:27.271Z,87.44
2023-01-12T21:16:31.273Z,88.03
2023-01-12T21:19:34.666Z,88.09
2023-01-12T21:22:37.132Z,88.00
2023-01-12T21:25:43.846Z,88.11
2023-01-12T21:28:46.373Z,88.37
2023-01-12T21:31:49.293Z,88.78
2023-01-12T21:34:51.728Z,88.98
2023-01-12T21:37:54.483Z,88.83
2023-01-12T21:41:01.787Z,88.93
2023-01-12T21:44:04.430Z,89.11
2023-01-12T21:47:06.934Z,88.53
2023-01-12T21:50:10.336Z,88.72
2023-01-12T21:53:18.608Z,88.54
2023-01-12T21:56:21.237Z,88.25
2023-01-12T21:59:23.641Z,88.34
2023-01-12T22:02:26.292Z,88.33
2023-01-12T22:05:29.302Z,88.40
2023-01-12T22:08:33.881Z,88.19
2023-01-12T22:11:38.657Z,88.09
2023-01-12T22:14:40.974Z,87.83
2023-01-12T22:17:44.130Z,87.98
2023-01-12T22:20:46.652Z,87.87
2023-01-12T22:23:49.704Z,88.12
2023-01-12T22:26:52.317Z,87.74
2023-01-12T22:29:55.569Z,87.53
2023-01-12T22:32:57.984Z,87.54
2023-01-12T22:36:05.272Z,87.48
2023-01-12T22:39:07.647Z,87.43
2023-01-12T22:42:10.289Z,87.41
2023-01-12T22:45:13.605Z,87.60
2023-01-12T22:48:16.727Z,87.54
2023-01-12T22:51:21.190Z,87.53
2023-01-12T22:54:23.798Z,87.85
2023-01-12T22:57:26.124Z,88.03
2023-01-12T23:00:28.752Z,88.09
2023-01-12T23:03:31.605Z,88.19
2023-01-12T23:06:37.299Z,87.92
2023-01-12T23:09:39.719Z,87.84
2023-01-12T23:13:02.646Z,88.11
2023-01-12T23:16:07.121Z,88.17
2023-01-12T23:19:10.542Z,88.10
2023-01-12T23:22:12.874Z,88.33
2023-01-12T23:25:15.532Z,88.79
2023-01-12T23:28:17.883Z,88.97
2023-01-12T23:31:22.422Z,88.88
2023-01-12T23:34:24.755Z,89.33
2023-01-12T23:37:27.349Z,89.25
2023-01-12T23:40:29.789Z,89.22
2023-01-12T23:43:33.911Z,89.30
2023-01-12T23:46:39.003Z,89.28
2023-01-12T23:49:42.955Z,89.16
2023-01-12T23:52:48.841Z,89.28
2023-01-12T23:55:52.431Z,89.72
2023-01-12T23:58:55.078Z,90.31
